createdAt,value
2022-08-27T00:03:17.702Z,100
2022-08-27T00:13:17.714Z,100
2022-08-27T00:23:17.720Z,100
2022-08-27T00:33:17.665Z,100
2022-08-27T00:43:17.675Z,100
2022-08-27T00:53:17.654Z,100
2022-08-27T01:03:17.657Z,100
2022-08-27T01:13:17.626Z,100
2022-08-27T01:23:17.632Z,100
2022-08-27T01:33:17.605Z,100
2022-08-27T01:43:17.611Z,100
2022-08-27T01:53:17.589Z,100
2022-08-27T02:03:17.586Z,100
2022-08-27T02:13:17.574Z,100
2022-08-27T02:23:17.551Z,100
2022-08-27T02:33:17.557Z,100
2022-08-27T02:43:25.069Z,100
2022-08-27T02:53:17.544Z,100
2022-08-27T03:03:17.507Z,100
2022-08-27T03:13:17.541Z,100
2022-08-27T03:23:17.512Z,100
2022-08-27T03:33:17.505Z,100
2022-08-27T03:43:17.490Z,100
2022-08-27T03:53:17.481Z,100
2022-08-27T04:03:17.477Z,100
2022-08-27T04:13:17.477Z,100
2022-08-27T04:23:17.443Z,100
2022-08-27T04:33:17.462Z,100
2022-08-27T04:43:17.565Z,100
2022-08-27T04:53:17.563Z,100
2022-08-27T05:03:17.417Z,100
2022-08-27T05:13:17.407Z,100
2022-08-27T05:23:17.381Z,100
2022-08-27T05:33:17.395Z,100
2022-08-27T05:43:17.378Z,100
2022-08-27T05:53:17.388Z,100
2022-08-27T06:03:17.362Z,100
2022-08-27T06:13:17.360Z,96
2022-08-27T06:23:17.373Z,86
2022-08-27T06:33:17.327Z,84
2022-08-27T06:43:18.147Z,90
2022-08-27T06:53:17.306Z,85
2022-08-27T07:03:17.315Z,82
2022-08-27T07:13:17.300Z,80
2022-08-27T07:23:17.278Z,79
2022-08-27T07:33:17.408Z,78
2022-08-27T07:43:17.244Z,81
2022-08-27T07:53:17.243Z,80
2022-08-27T08:03:17.307Z,79
2022-08-27T08:13:17.209Z,72
2022-08-27T08:23:17.224Z,69
2022-08-27T08:33:17.184Z,69
2022-08-27T08:43:17.171Z,69
2022-08-27T08:53:17.209Z,68
2022-08-27T09:03:17.143Z,64
2022-08-27T09:13:17.142Z,61
2022-08-27T09:23:17.120Z,59
2022-08-27T09:33:17.204Z,63
2022-08-27T09:43:17.131Z,67
2022-08-27T09:53:17.108Z,71
2022-08-27T10:03:17.104Z,76
2022-08-27T10:13:17.053Z,81
2022-08-27T10:23:17.047Z,80
2022-08-27T10:33:20.305Z,77
2022-08-27T10:43:17.051Z,74
2022-08-27T10:53:17.022Z,71
2022-08-27T11:03:17.170Z,62
2022-08-27T11:13:17.004Z,61
2022-08-27T11:23:16.996Z,62
2022-08-27T11:33:16.985Z,65
2022-08-27T11:43:16.962Z,60
2022-08-27T11:53:16.954Z,63
2022-08-27T12:03:16.984Z,63
2022-08-27T12:13:16.950Z,66
2022-08-27T12:23:16.923Z,66
2022-08-27T12:33:16.882Z,67
2022-08-27T12:43:16.890Z,68
2022-08-27T12:53:16.931Z,71
2022-08-27T13:13:16.868Z,75
2022-08-27T13:23:20.228Z,73
2022-08-27T13:33:16.846Z,82
2022-08-27T13:43:16.822Z,96
2022-08-27T13:53:16.809Z,100
2022-08-27T14:03:16.813Z,100
2022-08-27T14:13:16.799Z,100
2022-08-27T14:23:16.770Z,100
2022-08-27T14:33:16.797Z,100
2022-08-27T14:43:16.799Z,100
2022-08-27T14:53:16.757Z,100
2022-08-27T15:03:16.753Z,100
2022-08-27T15:13:16.764Z,100
2022-08-27T15:23:16.709Z,100
2022-08-27T15:33:16.688Z,100
2022-08-27T15:43:16.709Z,100
2022-08-27T15:53:16.677Z,100
2022-08-27T16:03:16.664Z,100
2022-08-27T16:13:16.654Z,100
2022-08-27T16:23:16.666Z,100
2022-08-27T16:33:16.660Z,100
2022-08-27T16:43:16.650Z,100
2022-08-27T16:53:16.605Z,100
2022-08-27T17:03:16.599Z,100
2022-08-27T17:13:16.601Z,100
2022-08-27T17:23:16.590Z,100
2022-08-27T17:33:16.558Z,100
2022-08-27T17:43:16.555Z,100
2022-08-27T17:53:16.560Z,100
2022-08-27T18:03:16.617Z,100
2022-08-27T18:13:16.540Z,100
2022-08-27T18:23:16.548Z,100
2022-08-27T18:33:16.527Z,100
2022-08-27T18:43:16.531Z,100
2022-08-27T18:53:16.504Z,100
2022-08-27T19:03:16.485Z,100
2022-08-27T19:13:16.479Z,100
2022-08-27T19:23:16.464Z,100
2022-08-27T19:33:16.478Z,100
2022-08-27T19:43:16.447Z,100
2022-08-27T19:53:16.446Z,100
2022-08-27T20:03:16.446Z,100
2022-08-27T20:13:16.416Z,100
2022-08-27T20:23:16.421Z,100
2022-08-27T20:33:16.396Z,100
2022-08-27T20:43:16.403Z,100
2022-08-27T20:53:16.420Z,100
2022-08-27T21:03:16.380Z,100
2022-08-27T21:13:16.365Z,100
2022-08-27T21:23:16.386Z,100
2022-08-27T21:33:16.336Z,100
2022-08-27T21:43:16.350Z,100
2022-08-27T21:53:16.337Z,100
2022-08-27T22:03:16.377Z,100
2022-08-27T22:13:16.321Z,100
2022-08-27T22:23:16.303Z,100
2022-08-27T22:33:16.292Z,100
2022-08-27T22:43:16.291Z,100
2022-08-27T22:53:16.267Z,100
2022-08-27T23:03:16.275Z,100
2022-08-27T23:13:16.286Z,100
2022-08-27T23:23:16.246Z,100
2022-08-27T23:33:16.242Z,100
2022-08-27T23:43:16.255Z,100
2022-08-27T23:53:16.229Z,100
